Time;durP1;ratioP1;P1;durP2;ratioP2;P2;SDS_P1;SDS_P2;PMS_P1;PMS_P2;Temp;Humidity;BMP_temperature;BMP_pressure;BME280_temperature;BME280_humidity;BME280_pressure;Samples;Min_cycle;Max_cycle;Signal;HPM_P1;HPM_P2
2023/04/07 00:01:21;;;;;;;31.45;19.70;;;6.50;99.90;;;;;;6339240;22;20010;-86
2023/04/07 00:03:46;;;;;;;33.50;20.57;;;6.50;99.90;;;;;;6338357;22;20026;-86
2023/04/07 00:06:12;;;;;;;37.20;21.20;;;7.50;99.90;;;;;;6336750;22;20011;-86
2023/04/07 00:08:38;;;;;;;32.22;18.48;;;6.50;99.90;;;;;;6338350;22;20015;-86
2023/04/07 00:11:04;;;;;;;35.78;20.20;;;6.50;99.90;;;;;;6337209;22;20017;-86
2023/04/07 00:13:30;;;;;;;37.08;20.58;;;6.50;99.90;;;;;;6337174;22;20399;-85
2023/04/07 00:15:55;;;;;;;36.70;21.70;;;6.50;99.90;;;;;;6335829;22;20021;-85
2023/04/07 00:18:21;;;;;;;34.30;19.67;;;6.50;99.90;;;;;;6336735;22;20049;-85
2023/04/07 00:20:47;;;;;;;35.73;21.77;;;6.50;99.90;;;;;;6337213;22;20034;-85
2023/04/07 00:23:12;;;;;;;36.77;20.87;;;6.50;99.90;;;;;;6337694;22;20072;-86
2023/04/07 00:25:38;;;;;;;37.53;20.40;;;6.50;99.90;;;;;;6336685;22;20011;-85
2023/04/07 00:28:04;;;;;;;38.20;21.10;;;6.50;99.90;;;;;;6338384;22;20439;-85
2023/04/07 00:30:29;;;;;;;34.87;19.60;;;6.50;99.90;;;;;;6336204;22;20042;-85
2023/04/07 00:32:55;;;;;;;36.27;21.77;;;6.50;99.90;;;;;;6338499;22;20018;-86
2023/04/07 00:35:21;;;;;;;37.50;21.27;;;6.50;99.90;;;;;;6336950;22;20015;-85
2023/04/07 00:37:47;;;;;;;35.10;20.47;;;6.50;99.90;;;;;;6338116;22;20014;-85
2023/04/07 00:40:12;;;;;;;36.43;21.20;;;6.50;99.90;;;;;;6336721;22;20084;-85
2023/04/07 00:42:38;;;;;;;37.03;21.67;;;6.50;99.90;;;;;;6336941;22;20037;-86
2023/04/07 00:45:05;;;;;;;33.10;19.70;;;6.50;99.90;;;;;;6339641;22;20018;-86
2023/04/07 00:47:30;;;;;;;37.43;20.67;;;6.50;99.90;;;;;;6338056;22;20080;-86
2023/04/07 00:49:56;;;;;;;36.03;21.08;;;6.50;99.90;;;;;;6336829;22;20101;-86
2023/04/07 00:52:27;;;;;;;37.42;21.27;;;6.50;99.90;;;;;;6341325;22;20430;-86
2023/04/07 00:54:54;;;;;;;35.33;21.92;;;6.50;99.90;;;;;;6340560;22;20006;-85
2023/04/07 00:57:24;;;;;;;36.17;20.75;;;6.50;99.90;;;;;;6336283;22;20014;-85
2023/04/07 00:59:50;;;;;;;39.13;20.48;;;6.50;99.90;;;;;;6336983;22;20010;-86
2023/04/07 01:02:25;;;;;;;37.03;21.52;;;6.50;99.90;;;;;;6335974;22;20095;-86
2023/04/07 01:05:22;;;;;;;38.95;21.48;;;6.50;99.90;;;;;;6337788;22;20772;-86
2023/04/07 01:07:57;;;;;;;39.13;22.45;;;6.50;99.90;;;;;;6337905;22;20015;-85
2023/04/07 01:10:32;;;;;;;36.75;20.45;;;6.50;99.90;;;;;;6336837;22;20014;-85
2023/04/07 01:13:30;;;;;;;41.83;22.35;;;7.70;99.90;;;;;;6337663;22;20082;-85
2023/04/07 01:15:59;;;;;;;35.22;20.23;;;6.50;99.90;;;;;;6310501;22;20025;-85
2023/04/07 01:18:33;;;;;;;41.08;21.83;;;6.50;99.90;;;;;;6336089;22;20447;-85
2023/04/07 01:21:10;;;;;;;40.03;22.58;;;6.50;99.90;;;;;;6338122;22;20072;-85
2023/04/07 01:24:13;;;;;;;43.00;23.15;;;6.50;99.90;;;;;;6338118;22;20025;-85
2023/04/07 01:26:39;;;;;;;43.20;23.08;;;6.50;99.90;;;;;;6336079;22;20052;-85
2023/04/07 01:29:31;;;;;;;42.50;21.90;;;7.20;99.90;;;;;;6338282;22;20017;-85
2023/04/07 01:31:59;;;;;;;43.22;22.52;;;6.50;99.90;;;;;;6335827;22;20011;-85
2023/04/07 01:34:27;;;;;;;40.63;23.42;;;6.50;99.90;;;;;;6337570;22;20025;-85
2023/04/07 01:36:55;;;;;;;42.58;22.60;;;6.50;99.90;;;;;;6336989;22;20030;-86
2023/04/07 01:39:21;;;;;;;42.53;22.38;;;6.40;99.90;;;;;;6339639;22;20011;-85
2023/04/07 01:41:49;;;;;;;41.33;21.42;;;6.50;99.90;;;;;;6340300;22;20087;-86
2023/04/07 01:44:16;;;;;;;45.63;23.23;;;6.50;99.90;;;;;;6339849;22;20071;-86
2023/04/07 01:46:41;;;;;;;45.25;23.92;;;6.50;99.90;;;;;;6337562;22;20007;-85
2023/04/07 01:49:07;;;;;;;44.90;23.48;;;6.50;99.90;;;;;;6339430;22;20311;-85
2023/04/07 01:51:34;;;;;;;44.95;23.48;;;6.50;99.90;;;;;;6338064;22;20011;-85
2023/04/07 01:54:01;;;;;;;47.55;24.00;;;6.50;99.90;;;;;;6337036;22;20022;-85
2023/04/07 01:56:26;;;;;;;49.60;24.90;;;6.50;99.90;;;;;;6337947;22;20482;-85
2023/04/07 01:58:52;;;;;;;51.28;24.90;;;6.50;99.90;;;;;;6339586;22;20015;-85
2023/04/07 02:01:17;;;;;;;45.45;23.20;;;6.50;99.90;;;;;;6336738;22;20017;-86
2023/04/07 02:03:55;;;;;;;47.30;24.75;;;6.50;99.90;;;;;;6339008;22;20021;-85
2023/04/07 02:06:30;;;;;;;49.97;23.63;;;6.50;99.90;;;;;;6337599;22;20060;-85
2023/04/07 02:09:00;;;;;;;43.97;23.30;;;6.50;99.90;;;;;;6337350;22;20026;-85
2023/04/07 02:11:28;;;;;;;50.22;23.90;;;6.40;99.90;;;;;;6337660;22;20040;-86
2023/04/07 02:13:55;;;;;;;44.63;23.88;;;6.40;99.90;;;;;;6342808;22;20010;-86
2023/04/07 02:16:21;;;;;;;49.78;24.75;;;7.60;99.90;;;;;;6339136;22;20014;-85
2023/04/07 02:18:48;;;;;;;49.97;24.20;;;6.50;99.90;;;;;;6337749;22;20443;-85
2023/04/07 02:21:14;;;;;;;52.58;25.83;;;6.50;99.90;;;;;;6342647;22;20372;-86
2023/04/07 02:23:40;;;;;;;55.20;24.50;;;6.50;99.90;;;;;;6365001;22;20015;-86
2023/04/07 02:26:06;;;;;;;47.05;24.00;;;6.50;99.90;;;;;;6339428;22;20041;-85
2023/04/07 02:28:32;;;;;;;49.97;24.38;;;6.50;99.90;;;;;;6337533;22;20011;-85
2023/04/07 02:30:57;;;;;;;50.78;24.35;;;6.40;99.90;;;;;;6339357;22;20098;-85
2023/04/07 02:33:23;;;;;;;49.90;24.40;;;6.50;99.90;;;;;;6337885;22;20384;-85
2023/04/07 02:35:48;;;;;;;46.30;23.88;;;6.40;99.90;;;;;;6336985;22;20018;-86
2023/04/07 02:38:14;;;;;;;51.20;24.70;;;6.40;99.90;;;;;;6338924;22;20018;-85
2023/04/07 02:40:40;;;;;;;50.28;24.60;;;6.40;99.90;;;;;;6337884;22;20053;-85
2023/04/07 02:43:06;;;;;;;47.67;22.98;;;6.60;99.90;;;;;;6336286;22;20022;-85
2023/04/07 02:45:31;;;;;;;46.83;24.05;;;6.40;99.90;;;;;;6337065;22;20011;-85
2023/04/07 02:47:57;;;;;;;47.25;23.05;;;6.40;99.90;;;;;;6338854;22;20015;-85
2023/04/07 02:50:24;;;;;;;50.38;24.17;;;6.40;99.90;;;;;;6336955;22;20011;-85
2023/04/07 02:52:50;;;;;;;49.67;25.35;;;6.40;99.90;;;;;;6337377;22;20007;-85
2023/04/07 02:55:17;;;;;;;50.70;23.95;;;6.50;99.90;;;;;;6337155;22;20806;-86
2023/04/07 02:57:43;;;;;;;53.95;24.25;;;7.20;99.90;;;;;;6338349;22;20021;-85
2023/04/07 03:00:09;;;;;;;54.10;25.13;;;6.40;99.90;;;;;;6336868;22;20007;-85
2023/04/07 03:02:35;;;;;;;51.05;23.40;;;6.40;99.90;;;;;;6338392;22;20017;-85
2023/04/07 03:05:02;;;;;;;52.15;26.10;;;6.40;99.90;;;;;;6336733;22;20015;-85
2023/04/07 03:07:28;;;;;;;53.00;26.35;;;6.40;99.90;;;;;;6339258;22;20010;-84
2023/04/07 03:09:53;;;;;;;52.88;24.38;;;6.40;99.90;;;;;;6337409;22;20506;-85
2023/04/07 03:12:19;;;;;;;53.72;25.50;;;6.40;99.90;;;;;;6338314;22;20103;-85
2023/04/07 03:14:45;;;;;;;51.47;24.50;;;6.40;99.90;;;;;;6337445;22;20065;-85
2023/04/07 03:17:10;;;;;;;55.75;26.02;;;6.80;99.90;;;;;;6337363;22;20023;-85
2023/04/07 03:19:36;;;;;;;53.50;24.95;;;6.40;99.90;;;;;;6337963;22;20022;-85
2023/04/07 03:22:01;;;;;;;57.67;25.83;;;6.40;99.90;;;;;;6336885;22;20027;-85
2023/04/07 03:24:27;;;;;;;48.95;24.27;;;6.40;99.90;;;;;;6338187;22;20019;-86
2023/04/07 03:26:53;;;;;;;53.42;25.63;;;6.40;99.90;;;;;;6336894;22;20014;-84
2023/04/07 03:29:18;;;;;;;49.63;24.35;;;6.40;99.90;;;;;;6338764;22;20326;-85
2023/04/07 03:31:44;;;;;;;56.22;24.25;;;6.40;99.90;;;;;;6338882;22;20038;-85
2023/04/07 03:34:10;;;;;;;52.03;25.20;;;6.40;99.90;;;;;;6337006;22;20052;-85
2023/04/07 03:36:35;;;;;;;55.97;24.83;;;6.40;99.90;;;;;;6338430;22;20454;-85
2023/04/07 03:39:01;;;;;;;49.10;23.75;;;6.40;99.90;;;;;;6338338;22;20086;-84
2023/04/07 03:41:26;;;;;;;48.28;23.98;;;6.30;99.90;;;;;;6352848;22;20019;-85
2023/04/07 03:43:52;;;;;;;43.97;22.42;;;6.40;99.90;;;;;;6338486;22;20019;-84
2023/04/07 03:46:21;;;;;;;50.35;24.10;;;6.40;99.90;;;;;;6338993;22;20018;-84
2023/04/07 03:48:46;;;;;;;50.75;23.02;;;6.40;99.90;;;;;;6341547;22;20022;-84
2023/04/07 03:51:12;;;;;;;52.37;24.03;;;6.40;99.90;;;;;;6337596;22;20018;-85
2023/04/07 03:53:38;;;;;;;48.17;23.75;;;6.40;99.90;;;;;;6336705;22;20039;-85
2023/04/07 03:56:04;;;;;;;46.37;23.17;;;7.00;99.90;;;;;;6336659;22;20029;-84
2023/04/07 03:58:29;;;;;;;52.63;23.27;;;6.40;99.90;;;;;;6337260;22;20477;-84
2023/04/07 04:00:55;;;;;;;46.15;23.48;;;6.40;99.90;;;;;;6337233;22;20046;-84
2023/04/07 04:03:20;;;;;;;49.73;23.77;;;6.40;99.90;;;;;;6337753;22;20019;-85
2023/04/07 04:05:46;;;;;;;46.33;22.42;;;6.30;99.90;;;;;;6337592;22;20110;-85
2023/04/07 04:08:12;;;;;;;43.97;21.88;;;6.30;99.90;;;;;;6335717;22;20018;-84
2023/04/07 04:10:37;;;;;;;45.15;23.63;;;6.30;99.90;;;;;;6336505;22;20019;-85
2023/04/07 04:13:05;;;;;;;49.05;22.70;;;6.30;99.90;;;;;;6338444;22;20498;-84
2023/04/07 04:15:31;;;;;;;44.00;22.85;;;6.30;99.90;;;;;;6336343;22;20022;-84
2023/04/07 04:17:56;;;;;;;45.20;21.92;;;6.30;99.90;;;;;;6338108;22;20019;-85
2023/04/07 04:20:22;;;;;;;40.55;21.23;;;6.30;99.90;;;;;;6336882;22;20018;-85
2023/04/07 04:22:48;;;;;;;42.22;21.48;;;6.30;99.90;;;;;;6336420;22;20037;-85
2023/04/07 04:25:15;;;;;;;41.77;21.53;;;6.30;99.90;;;;;;6338190;22;20017;-85
2023/04/07 04:27:41;;;;;;;44.53;23.00;;;6.30;99.90;;;;;;6338846;22;20019;-84
2023/04/07 04:30:07;;;;;;;43.27;21.53;;;6.30;99.90;;;;;;6337463;22;20022;-84
2023/04/07 04:32:33;;;;;;;44.20;21.50;;;6.30;99.90;;;;;;6336365;22;20425;-84
2023/04/07 04:34:59;;;;;;;50.08;22.88;;;6.30;99.90;;;;;;6337612;22;20437;-85
2023/04/07 04:37:25;;;;;;;38.92;20.92;;;6.30;99.90;;;;;;6338677;22;20018;-85
2023/04/07 04:39:51;;;;;;;45.47;22.45;;;6.30;99.90;;;;;;6336785;22;20484;-84
2023/04/07 04:42:17;;;;;;;45.35;22.25;;;6.20;99.90;;;;;;6336673;22;20019;-84
2023/04/07 04:44:43;;;;;;;41.22;21.20;;;6.30;99.90;;;;;;6338631;22;20030;-84
2023/04/07 04:47:08;;;;;;;39.90;20.55;;;6.30;99.90;;;;;;6337080;22;20465;-84
2023/04/07 04:49:34;;;;;;;41.10;21.03;;;6.30;99.90;;;;;;6336020;22;20026;-84
2023/04/07 04:52:00;;;;;;;40.13;21.02;;;6.20;99.90;;;;;;6338262;22;20018;-84
2023/04/07 04:54:26;;;;;;;39.65;20.23;;;6.30;99.90;;;;;;6338696;22;20011;-84
2023/04/07 04:56:52;;;;;;;41.63;21.17;;;6.60;99.90;;;;;;6338264;22;20007;-84
2023/04/07 04:59:17;;;;;;;40.67;20.85;;;6.30;99.90;;;;;;6338462;22;20468;-84
2023/04/07 05:01:43;;;;;;;38.88;20.20;;;6.30;99.90;;;;;;6338455;22;20014;-84
2023/04/07 05:04:09;;;;;;;40.90;21.00;;;6.30;99.90;;;;;;6335601;22;20156;-84
2023/04/07 05:06:35;;;;;;;40.23;20.33;;;6.30;99.90;;;;;;6342199;22;20018;-84
2023/04/07 05:09:00;;;;;;;38.63;21.10;;;6.30;99.90;;;;;;6355593;22;20010;-84
2023/04/07 05:11:26;;;;;;;41.33;21.30;;;6.30;99.90;;;;;;6343442;22;20042;-84
2023/04/07 05:13:52;;;;;;;41.13;21.63;;;6.30;99.90;;;;;;6338851;22;20018;-84
2023/04/07 05:16:17;;;;;;;43.58;22.70;;;6.30;99.90;;;;;;6343833;22;20007;-84
2023/04/07 05:18:43;;;;;;;44.97;22.48;;;6.30;99.90;;;;;;6349027;22;20014;-85
2023/04/07 05:21:11;;;;;;;43.75;21.50;;;6.20;99.90;;;;;;6338239;22;20015;-84
2023/04/07 05:23:37;;;;;;;40.25;21.63;;;6.30;99.90;;;;;;6340496;22;20072;-84
2023/04/07 05:26:02;;;;;;;41.92;21.65;;;7.20;99.90;;;;;;6338497;22;20011;-84
2023/04/07 05:28:28;;;;;;;41.70;21.63;;;6.30;99.90;;;;;;6339238;22;20038;-84
2023/04/07 05:30:56;;;;;;;42.40;21.45;;;6.30;99.90;;;;;;6338779;22;20011;-84
2023/04/07 05:33:22;;;;;;;41.17;22.00;;;6.30;99.90;;;;;;6340280;22;20010;-84
2023/04/07 05:35:47;;;;;;;44.40;21.63;;;6.30;99.90;;;;;;6340437;22;20018;-84
2023/04/07 05:38:15;;;;;;;42.92;21.95;;;6.30;99.90;;;;;;6340136;22;20037;-84
2023/04/07 05:40:41;;;;;;;46.55;22.67;;;6.30;99.90;;;;;;6338508;22;20053;-84
2023/04/07 05:43:06;;;;;;;40.13;20.98;;;6.30;99.90;;;;;;6338560;22;20342;-84
2023/04/07 05:45:32;;;;;;;40.95;22.75;;;6.40;99.90;;;;;;6339378;22;20081;-84
2023/04/07 05:48:00;;;;;;;43.47;22.47;;;7.50;99.90;;;;;;6329412;22;20161;-84
2023/04/07 05:50:26;;;;;;;44.87;22.13;;;6.10;99.90;;;;;;6282486;22;20016;-84
2023/04/07 05:52:52;;;;;;;47.63;22.77;;;6.30;99.90;;;;;;6308697;22;20022;-84
2023/04/07 05:55:17;;;;;;;44.65;22.17;;;6.30;99.90;;;;;;6280618;22;20039;-84
2023/04/07 05:57:43;;;;;;;45.28;22.83;;;6.40;99.90;;;;;;6281068;22;20011;-84
2023/04/07 06:00:09;;;;;;;42.85;22.10;;;6.40;99.90;;;;;;6280609;22;20019;-85
2023/04/07 06:02:35;;;;;;;40.13;21.05;;;6.30;99.90;;;;;;6307790;22;20517;-85
2023/04/07 06:05:02;;;;;;;43.40;22.80;;;6.80;99.90;;;;;;6308559;22;20019;-85
2023/04/07 06:07:28;;;;;;;41.30;21.50;;;6.40;99.90;;;;;;6308534;22;20027;-85
2023/04/07 06:09:53;;;;;;;41.50;21.35;;;6.40;99.90;;;;;;6308709;22;20090;-84
2023/04/07 06:12:19;;;;;;;44.90;22.05;;;6.40;99.90;;;;;;6308087;22;20022;-84
2023/04/07 06:14:51;;;;;;;39.70;21.55;;;6.40;99.90;;;;;;6308949;22;20061;-84
2023/04/07 06:17:17;;;;;;;44.95;21.92;;;6.40;99.90;;;;;;6282684;22;20019;-84
2023/04/07 06:19:43;;;;;;;43.05;21.48;;;6.40;99.90;;;;;;6310360;22;20014;-84
2023/04/07 06:22:08;;;;;;;40.95;21.55;;;6.40;99.90;;;;;;6307983;22;20011;-84
2023/04/07 06:24:34;;;;;;;41.47;21.40;;;6.50;99.90;;;;;;6308788;22;20020;-85
2023/04/07 06:27:00;;;;;;;43.30;22.17;;;6.50;99.90;;;;;;6281068;22;20398;-84
2023/04/07 06:29:26;;;;;;;40.95;21.45;;;6.50;99.90;;;;;;6308156;22;20011;-85
2023/04/07 06:31:55;;;;;;;43.42;21.17;;;6.50;99.90;;;;;;6280986;22;20042;-90
2023/04/07 06:34:20;;;;;;;39.30;20.65;;;6.50;99.90;;;;;;6281277;22;20015;-83
2023/04/07 06:36:46;;;;;;;38.58;20.92;;;6.60;99.90;;;;;;6280173;22;20499;-84
2023/04/07 06:39:12;;;;;;;35.88;20.77;;;6.60;99.90;;;;;;6285144;22;20080;-83
2023/04/07 06:41:37;;;;;;;38.33;20.73;;;6.60;99.90;;;;;;6280363;22;20042;-83
2023/04/07 06:44:03;;;;;;;36.85;20.85;;;6.60;99.90;;;;;;6311067;22;20365;-83
2023/04/07 06:46:29;;;;;;;40.38;21.05;;;6.70;99.90;;;;;;6289792;22;20011;-83
2023/04/07 06:48:55;;;;;;;37.45;20.33;;;6.70;99.90;;;;;;6307168;22;20103;-83
2023/04/07 06:51:21;;;;;;;39.92;20.65;;;6.80;99.90;;;;;;6307799;22;20019;-84
2023/04/07 06:53:47;;;;;;;40.88;20.80;;;6.80;99.90;;;;;;6308102;22;20012;-82
2023/04/07 06:56:13;;;;;;;36.78;20.33;;;6.80;99.90;;;;;;6306082;22;20370;-83
2023/04/07 06:58:53;;;;;;;38.70;20.35;;;8.40;99.90;;;;;;6279617;22;20015;-82
2023/04/07 07:01:19;;;;;;;36.45;20.48;;;6.90;99.90;;;;;;6279691;22;20092;-82
2023/04/07 07:03:46;;;;;;;35.58;19.67;;;8.00;99.90;;;;;;6279677;22;20023;-82
2023/04/07 07:06:14;;;;;;;35.13;19.50;;;7.00;99.90;;;;;;6307432;22;20050;-82
2023/04/07 07:08:39;;;;;;;35.90;20.70;;;8.00;99.90;;;;;;6307898;22;20011;-82
2023/04/07 07:11:05;;;;;;;36.67;20.42;;;7.00;99.90;;;;;;6306957;22;20087;-82
2023/04/07 07:13:31;;;;;;;34.38;20.85;;;7.10;99.90;;;;;;6307543;22;20235;-82
2023/04/07 07:15:56;;;;;;;36.00;20.20;;;7.20;99.90;;;;;;6279810;22;20446;-82
2023/04/07 07:18:22;;;;;;;34.70;20.48;;;7.20;99.90;;;;;;6307014;22;20007;-82
2023/04/07 07:20:48;;;;;;;34.95;19.40;;;7.30;99.90;;;;;;6307985;22;20319;-82
2023/04/07 07:23:13;;;;;;;37.35;20.55;;;7.40;99.90;;;;;;6281178;22;20025;-82
2023/04/07 07:25:39;;;;;;;33.28;19.95;;;7.40;99.90;;;;;;6279379;22;20019;-83
2023/04/07 07:28:22;;;;;;;36.10;20.50;;;7.50;99.90;;;;;;6301590;22;20019;-84
2023/04/07 07:30:48;;;;;;;35.45;20.30;;;9.10;99.90;;;;;;6306813;22;20443;-82
2023/04/07 07:33:14;;;;;;;34.78;20.50;;;7.50;99.90;;;;;;6306816;22;20494;-83
2023/04/07 07:35:40;;;;;;;34.15;20.25;;;7.60;99.90;;;;;;6307714;22;20015;-86
2023/04/07 07:38:06;;;;;;;30.88;19.35;;;7.60;99.90;;;;;;6280300;22;20011;-84
2023/04/07 07:40:32;;;;;;;32.25;20.00;;;7.60;99.90;;;;;;6279510;22;20463;-83
2023/04/07 07:42:58;;;;;;;33.67;20.30;;;7.60;99.90;;;;;;6307082;22;20026;-83
2023/04/07 07:45:24;;;;;;;34.05;20.63;;;7.60;99.90;;;;;;6279112;22;20102;-83
2023/04/07 07:47:50;;;;;;;30.73;19.15;;;7.60;99.90;;;;;;6306685;22;20447;-83
2023/04/07 07:50:15;;;;;;;34.15;21.15;;;7.60;99.90;;;;;;6279219;22;20050;-83
2023/04/07 07:52:42;;;;;;;36.08;21.40;;;7.60;99.90;;;;;;6278934;22;20019;-80
2023/04/07 07:55:08;;;;;;;35.42;21.10;;;7.60;99.90;;;;;;6306766;22;20003;-81
2023/04/07 07:57:34;;;;;;;35.17;20.92;;;7.70;99.90;;;;;;6308171;22;20011;-80
2023/04/07 07:59:59;;;;;;;32.67;19.88;;;7.70;99.90;;;;;;6278889;22;20104;-81
2023/04/07 08:02:29;;;;;;;32.75;20.23;;;7.80;99.90;;;;;;6306907;22;20339;-81
2023/04/07 08:04:56;;;;;;;32.60;19.92;;;7.80;99.90;;;;;;6279726;22;20098;-81
2023/04/07 08:07:21;;;;;;;32.08;19.95;;;7.90;99.90;;;;;;6307123;22;20105;-81
2023/04/07 08:09:47;;;;;;;31.58;19.80;;;7.90;99.90;;;;;;6280954;22;20435;-81
2023/04/07 08:12:12;;;;;;;31.20;19.38;;;7.90;99.90;;;;;;6279673;22;20040;-80
2023/04/07 08:14:38;;;;;;;34.75;18.73;;;7.90;99.90;;;;;;6279516;22;20019;-80
2023/04/07 08:17:04;;;;;;;30.23;18.58;;;8.10;99.90;;;;;;6308099;22;20015;-81
2023/04/07 08:19:29;;;;;;;28.13;17.17;;;8.10;99.90;;;;;;6279988;22;20381;-80
2023/04/07 08:21:55;;;;;;;31.73;18.02;;;8.10;99.90;;;;;;6306449;22;20090;-81
2023/04/07 08:24:21;;;;;;;24.85;15.55;;;8.10;99.90;;;;;;6279288;22;20019;-80
2023/04/07 08:26:46;;;;;;;25.25;14.90;;;8.10;99.90;;;;;;6279382;22;20011;-81
2023/04/07 08:29:12;;;;;;;25.60;15.15;;;8.10;99.90;;;;;;6278800;22;20343;-84
2023/04/07 08:31:38;;;;;;;23.02;14.25;;;8.10;99.90;;;;;;6307614;22;20011;-83
2023/04/07 08:34:03;;;;;;;20.55;12.82;;;8.20;99.90;;;;;;6278847;22;20069;-81
2023/04/07 08:36:30;;;;;;;20.90;12.95;;;8.30;99.90;;;;;;6279488;22;20350;-81
2023/04/07 08:38:56;;;;;;;20.73;13.35;;;8.40;99.90;;;;;;6306884;22;20007;-80
2023/04/07 08:41:44;;;;;;;19.60;12.45;;;8.50;99.90;;;;;;6306609;22;20064;-80
2023/04/07 08:44:10;;;;;;;20.08;12.63;;;8.60;99.90;;;;;;6306984;22;20064;-80
2023/04/07 08:46:38;;;;;;;19.50;12.38;;;8.70;99.90;;;;;;6280210;22;20015;-80
2023/04/07 08:49:12;;;;;;;20.02;11.82;;;8.90;99.90;;;;;;6308614;22;20211;-80
2023/04/07 08:51:42;;;;;;;;;;;8.90;99.90;;;;;;6281863;22;20379;-80
2023/04/07 08:54:10;;;;;;;16.10;9.75;;;8.80;99.90;;;;;;6281563;22;19940;-80
2023/04/07 08:56:41;;;;;;;19.15;11.82;;;8.90;99.90;;;;;;6308827;22;20007;-81
2023/04/07 08:59:10;;;;;;;19.50;12.30;;;8.90;99.90;;;;;;6308771;22;20011;-81
2023/04/07 09:01:36;;;;;;;19.80;12.82;;;8.90;99.90;;;;;;6281360;22;20435;-80
2023/04/07 09:04:03;;;;;;;19.13;11.70;;;8.90;99.90;;;;;;6307735;22;20023;-81
2023/04/07 09:06:32;;;;;;;20.00;11.88;;;8.90;99.90;;;;;;6281822;22;20090;-81
2023/04/07 09:08:59;;;;;;;17.77;11.32;;;8.90;99.90;;;;;;6281450;22;20015;-81
2023/04/07 09:11:29;;;;;;;20.15;11.70;;;8.90;99.90;;;;;;6280507;22;20452;-80
2023/04/07 09:13:55;;;;;;;17.85;11.30;;;9.00;99.90;;;;;;6281196;22;20019;-81
2023/04/07 09:16:22;;;;;;;19.02;11.77;;;9.00;99.90;;;;;;6308455;22;20399;-80
2023/04/07 09:18:48;;;;;;;17.15;10.85;;;9.80;99.90;;;;;;6278602;22;20003;-80
2023/04/07 09:21:14;;;;;;;16.83;10.25;;;9.60;99.90;;;;;;6280809;22;20115;-80
2023/04/07 09:23:41;;;;;;;17.48;10.82;;;9.10;99.90;;;;;;6280360;22;20089;-81
2023/04/07 09:26:25;;;;;;;16.02;9.88;;;9.20;99.90;;;;;;6280667;22;20339;-81
2023/04/07 09:28:58;;;;;;;16.50;10.55;;;9.30;99.90;;;;;;6307311;22;20026;-81
2023/04/07 09:31:48;;;;;;;16.70;10.23;;;9.50;99.90;;;;;;6305690;22;20502;-80
2023/04/07 09:34:35;;;;;;;16.83;10.40;;;9.60;99.90;;;;;;6280619;22;20405;-80
2023/04/07 09:37:01;;;;;;;14.95;9.52;;;10.50;99.90;;;;;;6281046;22;20025;-81
2023/04/07 09:39:27;;;;;;;14.88;9.32;;;9.60;99.90;;;;;;6309480;22;20011;-80
2023/04/07 09:41:53;;;;;;;14.70;8.90;;;9.60;99.90;;;;;;6308872;22;20015;-80
2023/04/07 09:44:19;;;;;;;15.48;9.05;;;9.70;99.90;;;;;;6308605;22;20364;-80
2023/04/07 09:46:53;;;;;;;14.82;8.80;;;9.70;99.90;;;;;;6282124;22;20026;-80
2023/04/07 09:49:20;;;;;;;13.43;7.97;;;10.00;99.90;;;;;;6307324;22;20019;-80
2023/04/07 09:51:58;;;;;;;14.43;8.77;;;10.20;99.90;;;;;;6280302;22;20011;-80
2023/04/07 09:54:38;;;;;;;14.55;8.57;;;10.20;99.90;;;;;;6281110;22;20018;-81
2023/04/07 09:57:06;;;;;;;14.93;8.38;;;10.20;99.90;;;;;;6280586;22;20019;-80
2023/04/07 09:59:33;;;;;;;14.57;9.15;;;10.20;99.90;;;;;;6280631;22;20057;-80
2023/04/07 10:02:00;;;;;;;16.30;9.55;;;10.20;99.90;;;;;;6280054;22;20019;-81
2023/04/07 10:04:27;;;;;;;15.32;9.30;;;10.10;99.90;;;;;;6308158;22;20015;-79
2023/04/07 10:06:54;;;;;;;15.98;9.60;;;10.00;99.90;;;;;;6307287;22;20442;-81
2023/04/07 10:09:25;;;;;;;15.65;9.45;;;9.90;99.90;;;;;;6307572;22;20011;-81
2023/04/07 10:11:53;;;;;;;15.55;9.27;;;10.60;99.90;;;;;;6255378;22;20034;-81
2023/04/07 10:14:22;;;;;;;14.52;9.15;;;9.80;99.90;;;;;;6279913;22;20090;-80
2023/04/07 10:16:48;;;;;;;14.55;9.25;;;9.70;99.90;;;;;;6307826;22;20019;-80
2023/04/07 10:19:15;;;;;;;15.43;9.98;;;10.20;99.90;;;;;;6304739;22;20007;-80
2023/04/07 10:21:42;;;;;;;15.52;9.70;;;9.50;99.90;;;;;;6279630;22;20018;-80
2023/04/07 10:24:33;;;;;;;14.52;9.00;;;10.20;99.90;;;;;;6280040;22;20026;-80
2023/04/07 10:27:08;;;;;;;16.50;9.73;;;9.40;99.90;;;;;;6279130;22;20479;-81
2023/04/07 10:29:42;;;;;;;15.82;9.63;;;9.40;99.90;;;;;;6307520;22;20030;-80
2023/04/07 10:32:14;;;;;;;16.92;9.52;;;9.40;99.90;;;;;;6306846;22;20011;-80
2023/04/07 10:34:56;;;;;;;15.40;9.45;;;9.90;99.90;;;;;;6278985;22;20026;-81
2023/04/07 10:38:25;;;;;;;17.13;9.75;;;9.50;99.90;;;;;;6240456;22;20057;-80
2023/04/07 10:40:51;;;;;;;14.60;8.80;;;9.60;99.90;;;;;;6306992;22;20463;-81
2023/04/07 10:43:40;;;;;;;13.25;7.57;;;9.60;99.90;;;;;;6279700;22;20076;-80
2023/04/07 10:46:06;;;;;;;14.07;7.65;;;9.50;99.90;;;;;;6279544;22;20336;-80
2023/04/07 10:48:32;;;;;;;15.10;8.32;;;9.50;99.90;;;;;;6279623;22;20045;-81
2023/04/07 10:51:04;;;;;;;14.27;8.30;;;9.50;99.90;;;;;;6306874;22;20327;-80
2023/04/07 10:53:33;;;;;;;14.25;8.55;;;9.40;99.90;;;;;;6279705;22;20026;-80
2023/04/07 10:55:59;;;;;;;14.80;8.95;;;9.50;99.90;;;;;;6276247;22;20015;-80
2023/04/07 10:58:27;;;;;;;14.98;8.70;;;9.50;99.90;;;;;;6278665;22;20378;-80
2023/04/07 11:00:59;;;;;;;14.65;8.85;;;9.60;99.90;;;;;;6279311;22;20019;-80
2023/04/07 11:03:27;;;;;;;14.98;9.13;;;9.60;99.90;;;;;;6278323;22;20015;-81
2023/04/07 11:06:01;;;;;;;14.40;9.35;;;9.60;99.90;;;;;;6278800;22;20373;-81
2023/04/07 11:08:35;;;;;;;15.73;8.85;;;9.50;99.90;;;;;;6281555;22;20063;-82
2023/04/07 11:11:01;;;;;;;15.05;8.73;;;9.70;99.90;;;;;;6279401;22;20386;-81
2023/04/07 11:13:27;;;;;;;15.25;9.25;;;10.50;99.90;;;;;;6307976;22;20080;-81
2023/04/07 11:15:53;;;;;;;15.52;9.40;;;9.40;99.90;;;;;;6280320;22;20056;-80
2023/04/07 11:18:22;;;;;;;14.60;9.30;;;9.70;99.90;;;;;;6279581;22;20019;-80
2023/04/07 11:20:49;;;;;;;15.82;9.77;;;9.40;99.90;;;;;;6279802;22;20007;-80
2023/04/07 11:23:17;;;;;;;15.90;9.75;;;9.40;99.90;;;;;;6278330;22;20019;-80
2023/04/07 11:25:44;;;;;;;15.48;9.57;;;9.80;99.90;;;;;;6307230;22;20141;-80
2023/04/07 11:28:12;;;;;;;15.00;9.23;;;9.40;99.90;;;;;;6279522;22;20327;-80
2023/04/07 11:30:38;;;;;;;14.98;9.00;;;9.40;99.90;;;;;;6279131;22;20085;-80
2023/04/07 11:33:04;;;;;;;16.05;8.93;;;9.50;99.90;;;;;;6306048;22;20435;-79
2023/04/07 11:35:30;;;;;;;14.52;8.27;;;10.40;99.90;;;;;;6279596;22;20062;-80
2023/04/07 11:38:02;;;;;;;13.65;8.18;;;9.70;99.90;;;;;;6278315;22;20347;-80
2023/04/07 11:40:36;;;;;;;13.93;7.82;;;9.70;99.90;;;;;;6279078;22;20019;-79
2023/04/07 11:43:13;;;;;;;;;;;10.30;99.90;;;;;;6279801;22;20403;-79
2023/04/07 11:45:39;;;;;;;;;;;9.90;99.90;;;;;;6279214;22;19922;-79
2023/04/07 11:48:24;;;;;;;;;;;10.00;99.90;;;;;;6279533;22;19918;-79
2023/04/07 11:50:49;;;;;;;;;;;10.00;99.90;;;;;;6307564;22;20289;-79
2023/04/07 11:53:23;;;;;;;;;;;10.10;99.90;;;;;;6306112;22;20319;-80
2023/04/07 11:58:24;;;;;;;;;;;10.30;99.90;;;;;;6299025;22;19911;-80
2023/04/07 12:01:08;;;;;;;;;;;11.70;99.90;;;;;;6279495;22;19914;-79
2023/04/07 12:03:34;;;;;;;;;;;10.30;99.90;;;;;;6307740;22;20059;-79
2023/04/07 12:06:03;;;;;;;;;;;10.30;99.90;;;;;;6279057;22;19914;-80
2023/04/07 12:08:35;;;;;;;;;;;10.30;99.90;;;;;;6279497;22;20431;-80
2023/04/07 12:11:04;;;;;;;;;;;10.30;99.90;;;;;;6279603;22;19922;-80
2023/04/07 12:13:30;;;;;;;;;;;10.50;99.90;;;;;;6306323;22;19927;-79
2023/04/07 12:15:57;;;;;;;;;;;10.60;99.90;;;;;;6307057;22;20415;-80
2023/04/07 12:18:24;;;;;;;;;;;10.80;99.90;;;;;;6279074;22;19921;-79
2023/04/07 12:20:49;;;;;;;;;;;10.80;99.90;;;;;;6305897;22;19957;-79
2023/04/07 12:23:15;;;;;;;;;;;11.00;99.90;;;;;;6306917;22;19925;-79
2023/04/07 12:25:40;;;;;;;;;;;11.00;99.90;;;;;;6307214;22;20340;-79
2023/04/07 12:28:06;;;;;;;;;;;11.60;99.90;;;;;;6278283;22;19915;-79
2023/04/07 12:30:31;;;;;;;;;;;11.40;99.90;;;;;;6279491;22;20243;-80
2023/04/07 12:32:57;;;;;;;;;;;11.70;99.90;;;;;;6279248;22;19915;-79
2023/04/07 12:35:23;;;;;;;;;;;11.70;99.90;;;;;;6305822;22;19919;-79
2023/04/07 12:37:48;;;;;;;;;;;11.70;99.90;;;;;;6279661;22;19915;-79
2023/04/07 12:40:15;;;;;;;;;;;11.90;99.90;;;;;;6282724;22;20004;-79
2023/04/07 12:42:41;;;;;;;;;;;11.90;99.90;;;;;;6280138;22;19921;-79
2023/04/07 12:45:06;;;;;;;;;;;12.00;99.90;;;;;;6307091;22;19915;-79
2023/04/07 12:47:32;;;;;;;;;;;12.20;99.90;;;;;;6308876;22;19915;-79
2023/04/07 12:49:58;;;;;;;;;;;12.60;99.90;;;;;;6306615;22;20345;-79
2023/04/07 12:52:24;;;;;;;;;;;12.20;99.90;;;;;;6307425;22;20319;-80